createdAt,value
2017-06-20T00:02:09.708Z,10.10
2017-06-20T00:04:38.781Z,10.07
2017-06-20T00:07:07.854Z,10.27
2017-06-20T00:09:36.931Z,10.63
2017-06-20T00:12:06.951Z,10.87
2017-06-20T00:14:35.995Z,10.67
2017-06-20T00:17:05.085Z,10.17
2017-06-20T00:19:34.159Z,10.70
2017-06-20T00:22:03.216Z,10.33
2017-06-20T00:24:32.296Z,11.10
2017-06-20T00:27:01.340Z,11.03
2017-06-20T00:29:30.551Z,10.50
2017-06-20T00:31:59.641Z,11.30
2017-06-20T00:34:28.725Z,11.47
2017-06-20T00:36:57.791Z,11.30
2017-06-20T00:39:26.863Z,10.87
2017-06-20T00:41:55.968Z,11.30
2017-06-20T00:44:25.035Z,10.43
2017-06-20T00:46:54.112Z,10.40
2017-06-20T00:49:23.168Z,10.90
2017-06-20T00:51:52.276Z,10.70
2017-06-20T00:54:22.198Z,11.27
2017-06-20T00:56:51.533Z,10.90
2017-06-20T00:59:20.664Z,10.97
2017-06-20T01:01:49.773Z,11.23
2017-06-20T01:04:18.848Z,11.83
2017-06-20T01:06:47.960Z,11.37
2017-06-20T01:09:16.995Z,10.60
2017-06-20T01:11:46.064Z,11.13
2017-06-20T01:14:15.886Z,11.63
2017-06-20T01:16:45.724Z,10.43
2017-06-20T01:19:14.833Z,11.40
2017-06-20T01:21:43.900Z,11.53
2017-06-20T01:24:13.725Z,12.07
2017-06-20T01:26:42.825Z,11.60
2017-06-20T01:29:12.167Z,12.07
2017-06-20T01:31:41.213Z,11.37
2017-06-20T01:34:10.281Z,10.80
2017-06-20T01:36:40.116Z,11.43
2017-06-20T01:39:09.251Z,10.80
2017-06-20T01:41:38.311Z,12.13
2017-06-20T01:44:07.983Z,11.17
2017-06-20T01:46:37.027Z,12.63
2017-06-20T01:49:06.089Z,11.97
2017-06-20T01:51:35.926Z,12.00
2017-06-20T01:54:05.008Z,12.30
2017-06-20T01:56:34.081Z,12.03
2017-06-20T01:59:03.944Z,12.43
2017-06-20T02:01:33.024Z,11.13
2017-06-20T02:04:02.104Z,12.60
2017-06-20T02:06:31.187Z,12.70
2017-06-20T02:09:01.018Z,13.17
2017-06-20T02:11:30.107Z,12.57
2017-06-20T02:13:59.945Z,13.10
2017-06-20T02:16:29.032Z,13.67
2017-06-20T02:18:58.092Z,13.23
2017-06-20T02:21:27.934Z,12.47
2017-06-20T02:23:57.008Z,13.30
2017-06-20T02:26:26.084Z,12.37
2017-06-20T02:28:55.148Z,11.67
2017-06-20T02:31:24.235Z,11.87
2017-06-20T02:33:53.331Z,11.13
2017-06-20T02:36:22.398Z,11.80
2017-06-20T02:38:51.453Z,11.37
2017-06-20T02:41:20.532Z,9.90
2017-06-20T02:43:49.583Z,10.13
2017-06-20T02:46:18.674Z,12.00
2017-06-20T02:48:48.486Z,10.03
2017-06-20T02:51:17.542Z,10.40
2017-06-20T02:53:47.626Z,10.27
2017-06-20T02:56:16.684Z,10.03
2017-06-20T02:58:46.548Z,11.23
2017-06-20T03:01:15.832Z,10.43
2017-06-20T03:03:45.105Z,10.97
2017-06-20T03:06:14.985Z,10.90
2017-06-20T03:08:44.055Z,11.43
2017-06-20T03:11:14.953Z,10.87
2017-06-20T03:13:44.036Z,10.40
2017-06-20T03:16:13.853Z,11.37
2017-06-20T03:18:43.686Z,11.63
2017-06-20T03:21:12.796Z,11.30
2017-06-20T03:23:41.864Z,11.67
2017-06-20T03:26:10.962Z,11.03
2017-06-20T03:28:40.795Z,11.03
2017-06-20T03:31:09.849Z,10.97
2017-06-20T03:33:39.944Z,11.37
2017-06-20T03:36:09.022Z,10.97
2017-06-20T03:38:38.109Z,10.23
2017-06-20T03:41:07.426Z,11.03
2017-06-20T03:43:36.695Z,9.60
2017-06-20T03:46:05.796Z,10.70
2017-06-20T03:48:34.883Z,11.37
2017-06-20T03:51:03.965Z,10.17
2017-06-20T03:53:33.778Z,10.37
2017-06-20T03:56:02.868Z,9.87
2017-06-20T03:58:32.776Z,9.60
2017-06-20T04:01:02.633Z,10.27
2017-06-20T04:03:31.726Z,10.40
2017-06-20T04:06:00.793Z,9.80
2017-06-20T04:08:29.863Z,8.53
2017-06-20T04:10:58.928Z,9.20
2017-06-20T04:13:27.996Z,9.70
2017-06-20T04:15:57.055Z,9.03
2017-06-20T04:18:26.868Z,9.43
2017-06-20T04:21:02.256Z,9.70
2017-06-20T04:23:31.324Z,9.33
2017-06-20T04:26:00.395Z,10.00
2017-06-20T04:28:29.485Z,10.00
2017-06-20T04:30:58.536Z,10.83
2017-06-20T04:33:27.624Z,11.00
2017-06-20T04:35:56.712Z,11.00
2017-06-20T04:38:26.038Z,10.50
2017-06-20T04:40:55.167Z,9.63
2017-06-20T04:43:24.220Z,10.43
2017-06-20T04:45:53.277Z,9.80
2017-06-20T04:48:23.136Z,10.33
2017-06-20T04:50:52.224Z,9.90
2017-06-20T04:53:21.279Z,10.00
2017-06-20T04:55:51.108Z,9.83
2017-06-20T04:58:20.166Z,9.23
2017-06-20T05:00:49.263Z,8.90
2017-06-20T05:03:18.332Z,10.33
2017-06-20T05:05:47.394Z,9.30
2017-06-20T05:08:16.475Z,10.20
2017-06-20T05:10:45.563Z,8.90
2017-06-20T05:13:15.397Z,9.00
2017-06-20T05:15:44.576Z,8.73
2017-06-20T05:18:14.419Z,8.77
2017-06-20T05:20:43.452Z,8.10
2017-06-20T05:23:12.885Z,8.60
2017-06-20T05:25:41.936Z,9.60
2017-06-20T05:28:11.901Z,9.47
2017-06-20T05:30:40.974Z,9.13
2017-06-20T05:33:10.039Z,8.97
2017-06-20T05:35:39.137Z,9.47
2017-06-20T05:38:08.216Z,8.10
2017-06-20T05:40:37.267Z,8.90
2017-06-20T05:43:07.120Z,8.63
2017-06-20T05:45:36.177Z,8.70
2017-06-20T05:48:06.016Z,8.20
2017-06-20T05:50:35.075Z,8.80
2017-06-20T05:53:04.901Z,8.83
2017-06-20T05:55:34.724Z,8.90
2017-06-20T05:58:03.792Z,8.70
2017-06-20T06:00:33.656Z,8.23
2017-06-20T06:03:02.728Z,9.03
2017-06-20T06:05:32.064Z,9.20
2017-06-20T06:08:01.132Z,8.87
2017-06-20T06:10:30.176Z,8.13
2017-06-20T06:12:59.274Z,8.80
2017-06-20T06:15:28.335Z,8.43
2017-06-20T06:17:57.404Z,7.47
2017-06-20T06:20:27.208Z,8.30
2017-06-20T06:22:57.029Z,7.20
2017-06-20T06:25:26.133Z,8.40
2017-06-20T06:27:55.244Z,7.97
2017-06-20T06:30:24.309Z,7.80
2017-06-20T06:32:53.387Z,8.63
2017-06-20T06:35:23.228Z,7.90
2017-06-20T06:37:52.363Z,8.00
2017-06-20T06:40:21.536Z,8.83
2017-06-20T06:42:50.585Z,10.30
2017-06-20T06:45:20.404Z,9.03
2017-06-20T06:47:50.266Z,9.90
2017-06-20T06:50:19.332Z,8.50
2017-06-20T06:52:48.406Z,9.77
2017-06-20T06:55:18.314Z,9.70
2017-06-20T06:57:47.346Z,9.30
2017-06-20T07:00:16.401Z,9.63
2017-06-20T07:02:45.505Z,8.70
2017-06-20T07:05:15.324Z,9.40
2017-06-20T07:07:44.384Z,10.83
2017-06-20T07:10:14.509Z,9.93
2017-06-20T07:12:43.545Z,8.90
2017-06-20T07:15:12.625Z,10.20
2017-06-20T07:17:42.447Z,9.03
2017-06-20T07:20:11.538Z,9.67
2017-06-20T07:22:40.992Z,10.33
2017-06-20T07:25:11.059Z,9.37
2017-06-20T07:27:40.076Z,8.23
2017-06-20T07:30:10.005Z,9.40
2017-06-20T07:32:39.067Z,8.93
2017-06-20T07:35:08.128Z,8.97
2017-06-20T07:37:37.215Z,8.90
2017-06-20T07:40:06.572Z,9.83
2017-06-20T07:42:35.628Z,10.50
2017-06-20T07:45:05.480Z,10.70
2017-06-20T07:47:34.553Z,10.93
2017-06-20T07:50:04.376Z,13.20
2017-06-20T07:52:33.460Z,13.60
2017-06-20T07:55:03.324Z,12.30
2017-06-20T07:57:32.424Z,13.40
2017-06-20T08:00:01.519Z,13.53
2017-06-20T08:02:30.575Z,13.40
2017-06-20T08:04:59.703Z,13.13
2017-06-20T08:07:28.815Z,13.83
2017-06-20T08:09:57.887Z,14.20
2017-06-20T08:12:26.990Z,14.63
2017-06-20T08:14:56.052Z,13.90
2017-06-20T08:17:25.136Z,16.10
2017-06-20T08:19:54.209Z,15.63
2017-06-20T08:22:24.031Z,17.03
2017-06-20T08:24:53.870Z,15.30
2017-06-20T08:27:22.961Z,17.70
2017-06-20T08:29:52.020Z,18.30
2017-06-20T08:32:21.116Z,20.67
2017-06-20T08:34:50.340Z,21.47
2017-06-20T08:37:25.372Z,22.50
2017-06-20T08:39:55.325Z,22.67
2017-06-20T08:42:24.390Z,25.77
2017-06-20T08:44:53.510Z,23.43
2017-06-20T08:47:22.562Z,24.33
2017-06-20T08:49:52.425Z,26.00
2017-06-20T08:52:21.499Z,23.50
2017-06-20T08:54:50.551Z,25.03
2017-06-20T08:57:19.648Z,23.90
2017-06-20T08:59:48.744Z,21.60
2017-06-20T09:02:17.811Z,22.50
2017-06-20T09:04:46.941Z,23.47
2017-06-20T09:07:17.028Z,21.17
2017-06-20T09:09:46.105Z,20.67
2017-06-20T09:12:15.158Z,21.70
2017-06-20T09:14:44.988Z,21.67
2017-06-20T09:17:14.096Z,18.60
2017-06-20T09:19:43.155Z,19.60
2017-06-20T09:22:12.312Z,19.03
2017-06-20T09:24:41.394Z,18.63
2017-06-20T09:27:10.537Z,17.67
2017-06-20T09:29:39.612Z,24.07
2017-06-20T09:32:08.725Z,19.50
2017-06-20T09:34:37.811Z,18.23
2017-06-20T09:37:06.860Z,20.30
2017-06-20T09:39:35.947Z,18.90
2017-06-20T09:42:05.081Z,20.20
2017-06-20T09:44:34.143Z,18.53
2017-06-20T09:47:03.230Z,21.83
2017-06-20T09:49:32.406Z,23.93
2017-06-20T09:52:02.255Z,21.27
2017-06-20T09:54:31.329Z,21.20
2017-06-20T09:57:00.404Z,20.87
2017-06-20T09:59:29.469Z,20.60
2017-06-20T10:01:58.544Z,19.30
2017-06-20T10:04:27.607Z,24.87
2017-06-20T10:06:56.682Z,22.00
2017-06-20T10:09:26.529Z,22.37
2017-06-20T10:11:55.583Z,17.77
2017-06-20T10:14:24.644Z,22.77
2017-06-20T10:16:53.736Z,22.57
2017-06-20T10:19:22.812Z,22.50
2017-06-20T10:21:51.896Z,17.80
2017-06-20T10:24:21.707Z,20.93
2017-06-20T10:26:50.767Z,18.27
2017-06-20T10:29:19.841Z,17.73
2017-06-20T10:31:48.927Z,16.60
2017-06-20T10:34:18.295Z,18.50
2017-06-20T10:36:47.364Z,17.77
2017-06-20T10:39:16.447Z,14.20
2017-06-20T10:41:45.544Z,14.20
2017-06-20T10:44:14.584Z,15.90
2017-06-20T10:46:43.660Z,17.90
2017-06-20T10:49:13.476Z,19.87
2017-06-20T10:51:42.576Z,18.90
2017-06-20T10:54:12.400Z,17.80
2017-06-20T10:56:41.572Z,18.70
2017-06-20T10:59:10.652Z,18.53
2017-06-20T11:01:39.738Z,18.60
2017-06-20T11:04:08.831Z,21.87
2017-06-20T11:06:37.872Z,20.07
2017-06-20T11:09:06.942Z,20.27
2017-06-20T11:11:36.812Z,20.60
2017-06-20T11:14:05.911Z,20.70
2017-06-20T11:16:35.004Z,18.80
2017-06-20T11:19:04.061Z,20.13
2017-06-20T11:21:33.174Z,15.67
2017-06-20T11:24:02.356Z,16.80
2017-06-20T11:26:31.447Z,15.77
2017-06-20T11:29:01.245Z,14.07
2017-06-20T11:31:31.096Z,17.10
2017-06-20T11:34:00.165Z,16.47
2017-06-20T11:36:30.081Z,16.50
2017-06-20T11:38:59.160Z,15.30
2017-06-20T11:41:28.999Z,16.70
2017-06-20T11:43:58.200Z,15.03
2017-06-20T11:46:27.275Z,13.63
2017-06-20T11:48:56.356Z,12.57
2017-06-20T11:51:25.417Z,14.00
2017-06-20T11:53:54.499Z,11.60
2017-06-20T11:56:23.595Z,11.40
2017-06-20T11:58:52.652Z,13.30
2017-06-20T12:01:22.518Z,12.90
2017-06-20T12:03:51.589Z,11.00
2017-06-20T12:06:21.476Z,11.40
2017-06-20T12:08:51.309Z,10.13
2017-06-20T12:11:20.395Z,11.87
2017-06-20T12:13:49.476Z,12.33
2017-06-20T12:16:19.300Z,11.57
2017-06-20T12:18:48.369Z,9.67
2017-06-20T12:21:17.436Z,10.30
2017-06-20T12:23:46.504Z,9.70
2017-06-20T12:26:15.595Z,10.20
2017-06-20T12:28:44.648Z,12.30
2017-06-20T12:31:14.507Z,10.10
2017-06-20T12:33:43.576Z,11.60
2017-06-20T12:36:12.665Z,12.60
2017-06-20T12:38:42.500Z,11.67
2017-06-20T12:41:11.617Z,11.00
2017-06-20T12:43:40.714Z,11.07
2017-06-20T12:46:09.830Z,9.47
2017-06-20T12:48:38.896Z,9.90
2017-06-20T12:51:08.019Z,9.47
2017-06-20T12:53:37.067Z,10.63
2017-06-20T12:56:06.935Z,8.90
2017-06-20T12:58:35.974Z,9.30
2017-06-20T13:01:05.068Z,9.50
2017-06-20T13:03:34.125Z,8.33
2017-06-20T13:06:04.864Z,8.73
2017-06-20T13:08:33.947Z,7.77
2017-06-20T13:11:03.008Z,8.00
2017-06-20T13:13:32.064Z,8.17
2017-06-20T13:16:01.873Z,8.43
2017-06-20T13:18:31.715Z,8.90
2017-06-20T13:21:00.787Z,8.30
2017-06-20T13:23:29.837Z,8.83
2017-06-20T13:25:58.933Z,8.43
2017-06-20T13:28:27.989Z,7.80
2017-06-20T13:30:57.797Z,8.50
2017-06-20T13:33:26.876Z,8.50
2017-06-20T13:35:56.709Z,7.80
2017-06-20T13:38:25.761Z,7.57
2017-06-20T13:40:54.861Z,8.43
2017-06-20T13:43:23.947Z,8.33
2017-06-20T13:45:53.046Z,8.27
2017-06-20T13:48:22.106Z,8.40
2017-06-20T13:50:51.188Z,7.67
2017-06-20T13:53:20.264Z,7.83
2017-06-20T13:55:49.345Z,6.90
2017-06-20T13:58:19.185Z,7.07
2017-06-20T14:00:48.261Z,7.57
2017-06-20T14:03:18.115Z,7.57
2017-06-20T14:05:47.186Z,7.67
2017-06-20T14:08:16.257Z,7.87
2017-06-20T14:10:45.324Z,8.17
2017-06-20T14:13:14.392Z,7.37
2017-06-20T14:15:43.509Z,7.10
2017-06-20T14:18:12.585Z,7.37
2017-06-20T14:20:41.652Z,7.97
2017-06-20T14:23:11.464Z,7.60
2017-06-20T14:25:40.564Z,8.10
2017-06-20T14:28:09.655Z,7.90
2017-06-20T14:30:39.467Z,7.63
2017-06-20T14:33:09.330Z,7.53
2017-06-20T14:35:38.383Z,7.70
2017-06-20T14:38:07.457Z,7.77
2017-06-20T14:40:37.300Z,7.93
2017-06-20T14:43:06.431Z,8.80
2017-06-20T14:45:35.526Z,8.30
2017-06-20T14:48:04.607Z,8.50
2017-06-20T14:50:33.704Z,7.70
2017-06-20T14:53:02.804Z,8.17
2017-06-20T14:55:31.837Z,7.60
2017-06-20T14:58:01.681Z,9.10
2017-06-20T15:00:30.772Z,12.00
2017-06-20T15:02:59.848Z,9.80
2017-06-20T15:05:28.940Z,11.30
2017-06-20T15:07:58.005Z,10.53
2017-06-20T15:10:27.968Z,9.80
2017-06-20T15:12:57.114Z,10.10
2017-06-20T15:15:26.161Z,12.20
2017-06-20T15:17:55.229Z,10.80
2017-06-20T15:20:25.193Z,10.47
2017-06-20T15:22:54.229Z,10.60
2017-06-20T15:25:23.637Z,11.30
2017-06-20T15:27:52.720Z,10.40
2017-06-20T15:30:21.800Z,10.77
2017-06-20T15:32:50.861Z,10.53
2017-06-20T15:35:19.956Z,10.50
2017-06-20T15:37:49.035Z,10.70
2017-06-20T15:40:18.135Z,10.73
2017-06-20T15:42:47.316Z,10.10
2017-06-20T15:45:16.389Z,11.23
2017-06-20T15:47:45.484Z,10.43
2017-06-20T15:50:14.595Z,11.00
2017-06-20T15:52:43.690Z,10.30
2017-06-20T15:55:12.769Z,10.80
2017-06-20T15:57:41.855Z,10.30
2017-06-20T16:00:10.952Z,10.00
2017-06-20T16:02:40.024Z,9.97
2017-06-20T16:05:09.125Z,11.00
2017-06-20T16:07:38.215Z,10.00
2017-06-20T16:10:07.288Z,10.27
2017-06-20T16:12:36.384Z,10.23
2017-06-20T16:15:05.454Z,8.90
2017-06-20T16:17:34.565Z,8.90
2017-06-20T16:20:03.637Z,9.87
2017-06-20T16:22:32.700Z,9.43
2017-06-20T16:25:02.021Z,10.13
2017-06-20T16:27:31.093Z,10.00
2017-06-20T16:30:00.201Z,8.90
2017-06-20T16:32:29.271Z,9.20
2017-06-20T16:34:58.350Z,8.77
2017-06-20T16:37:27.443Z,9.40
2017-06-20T16:39:56.474Z,8.80
2017-06-20T16:42:25.543Z,9.03
2017-06-20T16:44:54.588Z,8.07
2017-06-20T16:47:23.677Z,8.73
2017-06-20T16:49:52.720Z,8.80
2017-06-20T16:52:21.767Z,8.33
2017-06-20T16:54:50.834Z,7.73
2017-06-20T16:57:19.893Z,6.80
2017-06-20T16:59:48.960Z,8.30
2017-06-20T17:02:18.017Z,7.43
2017-06-20T17:04:47.075Z,7.30
2017-06-20T17:07:16.161Z,7.50
2017-06-20T17:09:45.259Z,7.03
2017-06-20T17:12:14.358Z,6.70
2017-06-20T17:14:43.417Z,7.07
2017-06-20T17:17:12.642Z,6.60
2017-06-20T17:19:41.688Z,6.83
2017-06-20T17:22:10.806Z,6.40
2017-06-20T17:24:39.903Z,6.63
2017-06-20T17:27:08.991Z,5.80
2017-06-20T17:29:38.071Z,6.03
2017-06-20T17:32:07.148Z,6.23
2017-06-20T17:34:36.220Z,6.07
2017-06-20T17:37:05.287Z,5.80
2017-06-20T17:39:34.395Z,6.50
2017-06-20T17:42:03.444Z,5.57
2017-06-20T17:44:32.531Z,6.67
2017-06-20T17:47:01.587Z,5.77
2017-06-20T17:49:30.631Z,5.83
2017-06-20T17:51:59.763Z,5.37
2017-06-20T17:54:28.891Z,6.10
2017-06-20T17:56:58.619Z,5.57
2017-06-20T17:59:27.695Z,5.20
2017-06-20T18:01:56.743Z,6.07
2017-06-20T18:04:25.900Z,5.93
2017-06-20T18:06:54.966Z,5.33
2017-06-20T18:09:24.017Z,5.90
2017-06-20T18:11:53.111Z,5.10
2017-06-20T18:14:22.203Z,5.83
2017-06-20T18:16:51.257Z,5.73
2017-06-20T18:19:20.318Z,5.80
2017-06-20T18:21:49.484Z,5.80
2017-06-20T18:24:18.557Z,5.40
2017-06-20T18:26:47.616Z,5.17
2017-06-20T18:29:16.666Z,4.93
2017-06-20T18:31:45.751Z,5.60
2017-06-20T18:34:14.852Z,4.90
2017-06-20T18:36:43.927Z,4.70
2017-06-20T18:39:12.990Z,5.53
2017-06-20T18:41:42.111Z,5.10
2017-06-20T18:44:11.196Z,4.60
2017-06-20T18:46:40.298Z,5.30
2017-06-20T18:49:09.348Z,5.00
2017-06-20T18:51:38.458Z,4.60
2017-06-20T18:54:07.577Z,4.57
2017-06-20T18:56:36.671Z,4.50
2017-06-20T18:59:05.721Z,4.87
2017-06-20T19:01:34.780Z,5.87
2017-06-20T19:04:03.866Z,4.80
2017-06-20T19:06:32.898Z,4.00
2017-06-20T19:09:01.951Z,4.67
2017-06-20T19:11:31.025Z,4.83
2017-06-20T19:14:00.091Z,4.10
2017-06-20T19:16:29.165Z,3.70
2017-06-20T19:18:58.252Z,4.20
2017-06-20T19:21:27.327Z,3.53
2017-06-20T19:23:56.400Z,4.50
2017-06-20T19:26:26.214Z,4.03
2017-06-20T19:28:56.266Z,3.37
2017-06-20T19:31:25.332Z,4.03
2017-06-20T19:33:55.181Z,3.77
2017-06-20T19:36:24.292Z,3.40
2017-06-20T19:38:53.362Z,4.27
2017-06-20T19:41:22.420Z,3.67
2017-06-20T19:43:52.865Z,3.93
2017-06-20T19:46:21.924Z,3.40
2017-06-20T19:48:50.996Z,3.43
2017-06-20T19:51:20.079Z,4.23
2017-06-20T19:53:49.176Z,3.43
2017-06-20T19:56:18.288Z,3.90
2017-06-20T19:58:47.359Z,3.10
2017-06-20T20:01:16.415Z,3.63
2017-06-20T20:03:46.280Z,3.60
2017-06-20T20:06:15.340Z,3.70
2017-06-20T20:08:44.419Z,3.60
2017-06-20T20:11:14.267Z,3.80
2017-06-20T20:13:43.336Z,3.87
2017-06-20T20:16:13.182Z,3.60
2017-06-20T20:18:42.252Z,3.20
2017-06-20T20:21:11.345Z,3.60
2017-06-20T20:23:41.161Z,3.40
2017-06-20T20:26:10.235Z,3.57
2017-06-20T20:28:40.084Z,3.53
2017-06-20T20:31:09.127Z,3.03
2017-06-20T20:33:38.197Z,3.67
2017-06-20T20:36:07.311Z,3.00
2017-06-20T20:38:36.335Z,3.47
2017-06-20T20:41:06.435Z,2.80
2017-06-20T20:43:35.511Z,3.13
2017-06-20T20:46:04.580Z,2.90
2017-06-20T20:48:33.712Z,3.03
2017-06-20T20:51:02.814Z,3.10
2017-06-20T20:53:31.869Z,2.23
2017-06-20T20:56:00.932Z,2.70
2017-06-20T20:58:30.037Z,3.47
2017-06-20T21:00:59.876Z,3.00
2017-06-20T21:03:28.924Z,3.10
2017-06-20T21:05:58.772Z,2.70
2017-06-20T21:08:27.922Z,3.10
2017-06-20T21:10:57.780Z,2.93
2017-06-20T21:13:26.835Z,2.60
2017-06-20T21:15:55.898Z,2.37
2017-06-20T21:18:24.983Z,3.50
2017-06-20T21:20:54.064Z,2.63
2017-06-20T21:23:23.117Z,2.97
2017-06-20T21:25:52.963Z,3.03
2017-06-20T21:28:22.043Z,2.50
2017-06-20T21:30:51.125Z,2.80
2017-06-20T21:33:20.956Z,2.83
2017-06-20T21:35:50.036Z,3.23
2017-06-20T21:38:19.871Z,2.60
2017-06-20T21:40:48.934Z,2.67
2017-06-20T21:43:18.011Z,2.67
2017-06-20T21:45:47.072Z,3.20
2017-06-20T21:48:16.144Z,3.43
2017-06-20T21:50:45.212Z,3.10
2017-06-20T21:53:15.046Z,2.90
2017-06-20T21:55:44.902Z,2.90
2017-06-20T21:58:13.976Z,2.80
2017-06-20T22:00:43.021Z,2.50
2017-06-20T22:03:12.108Z,2.30
2017-06-20T22:05:41.165Z,3.00
2017-06-20T22:08:10.249Z,3.23
2017-06-20T22:10:39.315Z,2.80
2017-06-20T22:13:09.152Z,2.80
2017-06-20T22:15:38.222Z,2.43
2017-06-20T22:18:07.552Z,2.83
2017-06-20T22:20:36.627Z,2.70
2017-06-20T22:23:05.700Z,3.10
2017-06-20T22:25:34.801Z,2.20
2017-06-20T22:28:04.914Z,2.40
2017-06-20T22:30:35.063Z,2.30
2017-06-20T22:33:04.128Z,2.10
2017-06-20T22:35:33.215Z,2.60
2017-06-20T22:38:02.299Z,2.10
2017-06-20T22:40:31.372Z,2.57
2017-06-20T22:43:00.518Z,2.80
2017-06-20T22:45:29.578Z,2.60
2017-06-20T22:47:58.669Z,2.50
2017-06-20T22:50:27.765Z,3.13
2017-06-20T22:52:56.821Z,2.00
2017-06-20T22:55:25.883Z,2.57
2017-06-20T22:57:54.953Z,2.17
2017-06-20T23:00:24.007Z,1.93
2017-06-20T23:02:53.058Z,2.10
2017-06-20T23:05:22.124Z,1.70
2017-06-20T23:07:51.205Z,1.80
2017-06-20T23:10:20.404Z,1.90
2017-06-20T23:12:49.492Z,2.20
2017-06-20T23:15:18.752Z,1.87
2017-06-20T23:17:47.828Z,1.73
2017-06-20T23:20:16.932Z,2.80
2017-06-20T23:22:45.968Z,1.73
2017-06-20T23:25:15.088Z,1.93
2017-06-20T23:27:44.144Z,2.23
2017-06-20T23:30:13.222Z,1.80
2017-06-20T23:32:42.296Z,2.10
2017-06-20T23:35:11.348Z,2.23
2017-06-20T23:37:40.414Z,2.70
2017-06-20T23:40:09.493Z,2.27
2017-06-20T23:42:38.508Z,2.50
2017-06-20T23:45:07.651Z,2.37
2017-06-20T23:47:36.684Z,2.20
2017-06-20T23:50:05.989Z,1.90
2017-06-20T23:52:35.032Z,1.80
2017-06-20T23:55:04.090Z,1.90
2017-06-20T23:57:33.188Z,1.83
